createdAt,value
2023-01-30T00:01:32.599Z,53.99
2023-01-30T00:04:03.358Z,53.73
2023-01-30T00:06:33.905Z,52.41
2023-01-30T00:09:04.526Z,52.20
2023-01-30T00:11:34.971Z,51.88
2023-01-30T00:14:05.703Z,51.68
2023-01-30T00:16:37.225Z,48.58
2023-01-30T00:19:07.938Z,49.31
2023-01-30T00:21:38.679Z,49.31
2023-01-30T00:24:09.545Z,50.51
2023-01-30T00:26:40.785Z,51.52
2023-01-30T00:29:12.552Z,52.08
2023-01-30T00:31:43.040Z,52.46
2023-01-30T00:34:13.763Z,52.48
2023-01-30T00:36:44.413Z,52.58
2023-01-30T00:39:15.607Z,52.57
2023-01-30T00:42:03.843Z,52.86
2023-01-30T00:44:53.518Z,52.94
2023-01-30T00:47:24.625Z,52.45
2023-01-30T00:49:57.314Z,52.38
2023-01-30T00:52:27.829Z,52.23
2023-01-30T00:54:58.911Z,52.27
2023-01-30T00:57:29.400Z,52.21
2023-01-30T01:00:00.264Z,52.21
2023-01-30T01:02:30.785Z,52.40
2023-01-30T01:05:01.989Z,52.05
2023-01-30T01:07:32.833Z,52.04
2023-01-30T01:10:03.901Z,52.33
2023-01-30T01:12:34.467Z,52.12
2023-01-30T01:15:05.652Z,52.09
2023-01-30T01:17:36.369Z,52.16
2023-01-30T01:20:07.617Z,52.25
2023-01-30T01:22:38.239Z,52.05
2023-01-30T01:25:09.112Z,52.18
2023-01-30T01:27:39.736Z,52.36
2023-01-30T01:30:10.649Z,52.56
2023-01-30T01:32:41.131Z,52.11
2023-01-30T01:35:13.295Z,52.39
2023-01-30T01:37:43.725Z,52.38
2023-01-30T01:40:37.485Z,52.08
2023-01-30T01:43:24.920Z,51.72
2023-01-30T01:45:57.695Z,51.81
2023-01-30T01:48:32.717Z,51.80
2023-01-30T01:51:05.645Z,51.89
2023-01-30T01:53:37.413Z,51.61
2023-01-30T01:56:08.222Z,51.56
2023-01-30T01:58:48.076Z,51.60
2023-01-30T02:01:21.435Z,51.20
2023-01-30T02:03:58.840Z,50.72
2023-01-30T02:06:29.848Z,51.39
2023-01-30T02:09:04.389Z,51.25
2023-01-30T02:11:55.092Z,51.25
2023-01-30T02:14:25.963Z,51.00
2023-01-30T02:16:56.873Z,51.07
2023-01-30T02:19:28.478Z,51.13
2023-01-30T02:22:01.924Z,51.25
2023-01-30T02:24:32.499Z,51.32
2023-01-30T02:27:15.806Z,51.36
2023-01-30T02:29:56.005Z,51.15
2023-01-30T02:32:38.996Z,50.78
2023-01-30T02:35:25.228Z,51.26
2023-01-30T02:38:04.733Z,51.08
2023-01-30T02:40:35.397Z,50.93
2023-01-30T02:43:24.254Z,50.91
2023-01-30T02:46:11.231Z,50.87
2023-01-30T02:48:48.125Z,50.80
2023-01-30T02:51:23.144Z,51.19
2023-01-30T02:53:53.692Z,51.13
2023-01-30T02:56:24.535Z,51.26
2023-01-30T02:59:03.450Z,51.18
2023-01-30T03:01:40.204Z,51.24
2023-01-30T03:04:33.237Z,51.22
2023-01-30T03:07:19.526Z,51.11
2023-01-30T03:09:59.505Z,51.42
2023-01-30T03:12:37.111Z,51.39
2023-01-30T03:15:13.193Z,51.36
2023-01-30T03:17:47.221Z,51.62
2023-01-30T03:20:22.294Z,51.25
2023-01-30T03:22:53.066Z,51.72
2023-01-30T03:25:25.340Z,51.51
2023-01-30T03:27:57.338Z,51.37
2023-01-30T03:30:28.401Z,51.36
2023-01-30T03:33:08.131Z,51.42
2023-01-30T03:35:40.404Z,51.65
2023-01-30T03:38:11.821Z,51.75
2023-01-30T03:40:42.346Z,51.62
2023-01-30T03:43:13.166Z,51.50
2023-01-30T03:45:44.599Z,51.65
2023-01-30T03:48:15.685Z,51.90
2023-01-30T03:50:46.112Z,51.88
2023-01-30T03:53:17.144Z,51.85
2023-01-30T03:55:47.897Z,51.97
2023-01-30T03:58:23.798Z,51.79
2023-01-30T04:00:57.655Z,52.08
2023-01-30T04:03:29.664Z,52.05
2023-01-30T04:06:02.557Z,52.19
2023-01-30T04:08:33.889Z,52.71
2023-01-30T04:11:04.525Z,52.79
2023-01-30T04:13:35.390Z,52.94
2023-01-30T04:16:19.689Z,53.13
2023-01-30T04:19:09.216Z,52.97
2023-01-30T04:21:40.471Z,53.47
2023-01-30T04:24:11.149Z,53.63
2023-01-30T04:26:42.025Z,53.50
2023-01-30T04:29:13.506Z,53.55
2023-01-30T04:31:45.339Z,53.94
2023-01-30T04:34:23.073Z,54.04
2023-01-30T04:36:54.207Z,53.70
2023-01-30T04:39:24.810Z,53.60
2023-01-30T04:41:55.645Z,54.04
2023-01-30T04:44:26.338Z,53.93
2023-01-30T04:47:05.895Z,53.39
2023-01-30T04:49:36.533Z,53.85
2023-01-30T04:52:09.168Z,53.14
2023-01-30T04:54:39.978Z,53.04
2023-01-30T04:57:10.793Z,53.40
2023-01-30T04:59:42.165Z,52.80
2023-01-30T05:02:16.259Z,52.71
2023-01-30T05:04:46.914Z,52.85
2023-01-30T05:07:18.076Z,52.50
2023-01-30T05:09:48.717Z,52.44
2023-01-30T05:12:19.178Z,52.73
2023-01-30T05:14:50.229Z,52.84
2023-01-30T05:17:21.094Z,52.32
2023-01-30T05:19:52.037Z,52.71
2023-01-30T05:22:22.475Z,52.38
2023-01-30T05:24:53.187Z,52.68
2023-01-30T05:27:23.707Z,52.27
2023-01-30T05:29:54.421Z,52.40
2023-01-30T05:32:25.135Z,52.86
2023-01-30T05:34:55.697Z,52.81
2023-01-30T05:37:26.338Z,52.83
2023-01-30T05:39:56.933Z,52.72
2023-01-30T05:42:27.382Z,52.70
2023-01-30T05:44:58.072Z,52.82
2023-01-30T05:47:29.135Z,52.85
2023-01-30T05:49:59.821Z,52.79
2023-01-30T05:52:30.895Z,52.62
2023-01-30T05:55:01.469Z,52.30
2023-01-30T05:57:32.059Z,52.41
2023-01-30T06:00:02.973Z,52.93
2023-01-30T06:02:42.788Z,52.76
2023-01-30T06:05:13.361Z,52.32
2023-01-30T06:07:44.213Z,52.93
2023-01-30T06:10:15.260Z,52.39
2023-01-30T06:12:45.724Z,52.86
2023-01-30T06:15:16.842Z,52.62
2023-01-30T06:17:48.126Z,52.86
2023-01-30T06:20:18.760Z,52.60
2023-01-30T06:22:50.205Z,52.38
2023-01-30T06:25:21.159Z,52.58
2023-01-30T06:27:52.139Z,52.97
2023-01-30T06:30:25.547Z,52.56
2023-01-30T06:32:56.004Z,52.86
2023-01-30T06:35:26.655Z,52.92
2023-01-30T06:37:57.015Z,52.85
2023-01-30T06:40:27.946Z,53.06
2023-01-30T06:42:58.457Z,52.92
2023-01-30T06:45:29.196Z,52.52
2023-01-30T06:47:59.652Z,52.73
2023-01-30T06:50:30.733Z,52.78
2023-01-30T06:53:03.959Z,52.52
2023-01-30T06:55:37.197Z,52.71
2023-01-30T06:58:12.119Z,52.44
2023-01-30T07:00:43.843Z,52.86
2023-01-30T07:03:16.010Z,52.99
2023-01-30T07:05:47.411Z,52.35
2023-01-30T07:08:18.366Z,52.39
2023-01-30T07:10:49.049Z,52.50
2023-01-30T07:13:19.912Z,52.30
2023-01-30T07:15:50.575Z,52.30
2023-01-30T07:18:24.347Z,52.72
2023-01-30T07:20:55.084Z,52.98
2023-01-30T07:23:25.570Z,52.37
2023-01-30T07:25:56.916Z,52.56
2023-01-30T07:28:27.568Z,52.09
2023-01-30T07:31:01.311Z,52.52
2023-01-30T07:33:32.241Z,52.36
2023-01-30T07:36:03.300Z,52.44
2023-01-30T07:38:33.836Z,52.42
2023-01-30T07:41:04.577Z,52.47
2023-01-30T07:43:35.495Z,52.06
2023-01-30T07:46:06.225Z,52.50
2023-01-30T07:48:36.603Z,52.67
2023-01-30T07:51:07.322Z,52.04
2023-01-30T07:53:37.788Z,52.11
2023-01-30T07:56:09.806Z,52.51
2023-01-30T07:58:40.612Z,52.09
2023-01-30T08:01:11.334Z,52.63
2023-01-30T08:03:42.056Z,52.09
2023-01-30T08:06:14.000Z,52.16
2023-01-30T08:08:44.884Z,51.68
2023-01-30T08:11:15.411Z,51.73
2023-01-30T08:13:46.007Z,52.00
2023-01-30T08:16:17.006Z,51.54
2023-01-30T08:18:47.407Z,51.93
2023-01-30T08:21:17.974Z,51.49
2023-01-30T08:23:49.125Z,51.90
2023-01-30T08:26:19.854Z,51.88
2023-01-30T08:28:51.091Z,51.87
2023-01-30T08:31:21.727Z,51.43
2023-01-30T08:33:52.296Z,51.76
2023-01-30T08:36:23.360Z,51.67
2023-01-30T08:38:53.769Z,51.09
2023-01-30T08:41:24.474Z,51.24
2023-01-30T08:43:55.606Z,51.19
2023-01-30T08:46:26.519Z,51.43
2023-01-30T08:48:56.922Z,51.42
2023-01-30T08:51:27.518Z,51.33
2023-01-30T08:53:57.975Z,51.60
2023-01-30T08:56:32.263Z,51.59
2023-01-30T08:59:02.792Z,51.12
2023-01-30T09:01:33.542Z,51.24
2023-01-30T09:04:04.320Z,51.40
2023-01-30T09:06:34.952Z,51.18
2023-01-30T09:09:05.735Z,51.35
2023-01-30T09:11:36.382Z,51.67
2023-01-30T09:14:07.267Z,51.95
2023-01-30T09:16:37.937Z,52.13
2023-01-30T09:19:08.448Z,52.29
2023-01-30T09:21:40.455Z,52.35
2023-01-30T09:24:10.882Z,52.42
2023-01-30T09:26:46.118Z,54.36
2023-01-30T09:29:17.231Z,55.29
2023-01-30T09:31:48.452Z,56.20
2023-01-30T09:34:19.002Z,56.30
2023-01-30T09:36:49.927Z,56.45
2023-01-30T09:39:20.877Z,56.24
2023-01-30T09:41:58.452Z,56.25
2023-01-30T09:44:34.189Z,56.67
2023-01-30T09:47:22.545Z,56.86
2023-01-30T09:49:53.046Z,57.21
2023-01-30T09:52:30.024Z,57.24
2023-01-30T09:55:21.082Z,57.21
2023-01-30T09:57:53.416Z,56.66
2023-01-30T10:00:27.397Z,57.14
2023-01-30T10:03:06.836Z,56.94
2023-01-30T10:05:46.134Z,57.34
2023-01-30T10:08:35.096Z,56.93
2023-01-30T10:11:10.335Z,57.95
2023-01-30T10:13:55.786Z,58.06
2023-01-30T10:16:44.375Z,58.97
2023-01-30T10:19:53.464Z,59.17
2023-01-30T10:22:24.470Z,60.68
2023-01-30T10:25:09.141Z,60.35
2023-01-30T10:27:48.126Z,59.90
2023-01-30T10:30:19.576Z,58.63
2023-01-30T10:32:53.987Z,57.57
2023-01-30T10:35:27.353Z,57.51
2023-01-30T10:38:01.638Z,56.93
2023-01-30T10:40:41.864Z,56.78
2023-01-30T10:43:20.441Z,56.23
2023-01-30T10:46:09.519Z,56.10
2023-01-30T10:48:46.748Z,56.00
2023-01-30T10:51:21.228Z,55.33
2023-01-30T10:53:51.737Z,55.67
2023-01-30T10:56:22.370Z,55.57
2023-01-30T10:59:05.472Z,55.48
2023-01-30T11:02:08.421Z,55.10
2023-01-30T11:04:43.939Z,54.98
2023-01-30T11:07:15.617Z,55.28
2023-01-30T11:09:49.808Z,54.87
2023-01-30T11:12:20.879Z,55.03
2023-01-30T11:15:00.297Z,55.07
2023-01-30T11:17:51.552Z,54.51
2023-01-30T11:20:26.282Z,55.02
2023-01-30T11:23:07.997Z,54.99
2023-01-30T11:26:09.396Z,54.64
2023-01-30T11:28:48.896Z,54.67
2023-01-30T11:31:39.856Z,54.99
2023-01-30T11:34:17.186Z,55.00
2023-01-30T11:36:48.748Z,55.18
2023-01-30T11:39:20.093Z,55.80
2023-01-30T11:41:59.930Z,56.49
2023-01-30T11:44:35.576Z,57.85
2023-01-30T11:47:11.091Z,58.58
2023-01-30T11:49:47.087Z,58.05
2023-01-30T11:52:19.930Z,59.29
2023-01-30T11:54:51.093Z,59.35
2023-01-30T11:57:22.294Z,60.81
2023-01-30T12:00:00.596Z,60.56
2023-01-30T12:02:35.451Z,61.35
2023-01-30T12:05:08.130Z,61.17
2023-01-30T12:07:39.261Z,61.24
2023-01-30T12:10:31.866Z,61.63
2023-01-30T12:13:05.006Z,61.44
2023-01-30T12:15:37.575Z,61.60
2023-01-30T12:18:23.469Z,62.16
2023-01-30T12:21:04.732Z,61.98
2023-01-30T12:24:04.198Z,62.45
2023-01-30T12:26:35.712Z,62.47
2023-01-30T12:29:06.190Z,62.84
2023-01-30T12:31:48.153Z,62.38
2023-01-30T12:34:18.795Z,62.19
2023-01-30T12:37:09.900Z,62.97
2023-01-30T12:39:49.743Z,62.73
2023-01-30T12:42:52.441Z,63.44
2023-01-30T12:45:32.317Z,63.22
2023-01-30T12:48:03.020Z,63.00
2023-01-30T12:50:36.335Z,62.80
2023-01-30T12:53:06.881Z,63.15
2023-01-30T12:55:43.065Z,62.93
2023-01-30T12:58:19.186Z,62.75
2023-01-30T13:01:00.406Z,62.52
2023-01-30T13:03:36.875Z,63.15
2023-01-30T13:06:25.580Z,62.79
2023-01-30T13:09:14.638Z,63.02
2023-01-30T13:11:59.600Z,63.06
2023-01-30T13:14:42.158Z,63.18
2023-01-30T13:17:12.614Z,62.91
2023-01-30T13:19:43.163Z,63.18
2023-01-30T13:22:19.749Z,63.44
2023-01-30T13:24:55.721Z,63.25
2023-01-30T13:27:30.539Z,63.29
2023-01-30T13:30:01.839Z,63.25
2023-01-30T13:32:37.885Z,63.28
2023-01-30T13:35:31.721Z,62.89
2023-01-30T13:38:03.024Z,62.92
2023-01-30T13:40:37.917Z,63.20
2023-01-30T13:43:13.811Z,63.29
2023-01-30T13:45:47.666Z,63.52
2023-01-30T13:48:22.781Z,64.35
2023-01-30T13:51:11.701Z,64.28
2023-01-30T13:54:03.895Z,63.77
2023-01-30T13:56:42.026Z,63.94
2023-01-30T13:59:21.421Z,63.93
2023-01-30T14:02:11.592Z,64.29
2023-01-30T14:04:46.546Z,63.67
2023-01-30T14:07:20.229Z,60.64
2023-01-30T14:09:53.865Z,57.71
2023-01-30T14:12:30.473Z,57.46
2023-01-30T14:15:20.419Z,56.19
2023-01-30T14:18:03.510Z,55.75
2023-01-30T14:20:34.608Z,54.93
2023-01-30T14:23:23.722Z,54.46
2023-01-30T14:26:00.948Z,53.67
2023-01-30T14:28:31.526Z,53.04
2023-01-30T14:31:03.348Z,52.67
2023-01-30T14:33:35.619Z,52.57
2023-01-30T14:36:11.693Z,52.56
2023-01-30T14:38:43.164Z,52.21
2023-01-30T14:41:19.666Z,51.72
2023-01-30T14:43:53.381Z,51.27
2023-01-30T14:46:24.644Z,50.89
2023-01-30T14:48:55.300Z,50.53
2023-01-30T14:51:38.702Z,50.66
2023-01-30T14:54:27.458Z,50.15
2023-01-30T14:57:03.357Z,49.95
2023-01-30T15:00:03.273Z,50.04
2023-01-30T15:02:45.605Z,49.32
2023-01-30T15:05:20.701Z,49.27
2023-01-30T15:07:59.817Z,49.08
2023-01-30T15:10:35.934Z,49.55
2023-01-30T15:13:18.616Z,48.95
2023-01-30T15:15:52.542Z,48.22
2023-01-30T15:18:26.329Z,48.36
2023-01-30T15:21:39.195Z,47.87
2023-01-30T15:24:16.402Z,48.77
2023-01-30T15:26:52.888Z,50.36
2023-01-30T15:29:25.969Z,52.14
2023-01-30T15:32:00.893Z,53.75
2023-01-30T15:34:32.496Z,55.06
2023-01-30T15:37:03.096Z,55.94
2023-01-30T15:39:36.377Z,55.57
2023-01-30T15:42:09.509Z,54.18
2023-01-30T15:44:52.410Z,53.16
2023-01-30T15:47:35.389Z,52.61
2023-01-30T15:50:11.093Z,51.76
2023-01-30T15:52:51.947Z,51.13
2023-01-30T15:55:26.024Z,50.63
2023-01-30T15:57:59.173Z,51.21
2023-01-30T16:00:31.552Z,53.29
2023-01-30T16:03:03.606Z,54.40
2023-01-30T16:05:34.068Z,54.84
2023-01-30T16:08:12.533Z,55.97
2023-01-30T16:10:48.007Z,57.34
2023-01-30T16:13:20.863Z,56.16
2023-01-30T16:15:57.634Z,54.78
2023-01-30T16:18:34.218Z,53.91
2023-01-30T16:21:11.550Z,52.69
2023-01-30T16:23:54.727Z,52.01
2023-01-30T16:26:26.061Z,51.49
2023-01-30T16:29:02.956Z,53.17
2023-01-30T16:31:36.930Z,54.79
2023-01-30T16:34:07.657Z,55.70
2023-01-30T16:36:42.024Z,56.76
2023-01-30T16:39:28.437Z,56.35
2023-01-30T16:42:00.162Z,56.72
2023-01-30T16:44:33.990Z,58.27
2023-01-30T16:47:09.451Z,56.58
2023-01-30T16:49:42.930Z,55.13
2023-01-30T16:52:22.568Z,54.35
2023-01-30T16:54:53.166Z,53.68
2023-01-30T16:57:23.566Z,52.62
2023-01-30T16:59:54.167Z,54.20
2023-01-30T17:02:33.753Z,55.33
2023-01-30T17:05:22.573Z,55.95
2023-01-30T17:07:54.206Z,56.36
2023-01-30T17:10:31.178Z,57.08
2023-01-30T17:13:01.757Z,58.03
2023-01-30T17:15:34.557Z,58.66
2023-01-30T17:18:05.153Z,59.60
2023-01-30T17:20:39.573Z,59.35
2023-01-30T17:23:10.768Z,57.75
2023-01-30T17:25:43.326Z,56.75
2023-01-30T17:28:19.052Z,55.27
2023-01-30T17:30:50.600Z,54.84
2023-01-30T17:33:21.714Z,55.89
2023-01-30T17:35:52.941Z,56.92
2023-01-30T17:38:23.643Z,56.94
2023-01-30T17:40:54.131Z,57.96
2023-01-30T17:43:24.727Z,58.83
2023-01-30T17:45:56.825Z,59.61
2023-01-30T17:48:28.024Z,60.65
2023-01-30T17:50:58.746Z,60.14
2023-01-30T17:53:29.199Z,58.92
2023-01-30T17:55:59.777Z,57.46
2023-01-30T17:58:30.329Z,56.23
2023-01-30T18:01:01.360Z,56.04
2023-01-30T18:03:31.700Z,57.00
2023-01-30T18:06:02.180Z,57.00
2023-01-30T18:08:32.676Z,57.90
2023-01-30T18:11:03.285Z,58.97
2023-01-30T18:13:35.565Z,59.86
2023-01-30T18:16:07.039Z,60.34
2023-01-30T18:18:37.377Z,60.89
2023-01-30T18:21:07.883Z,61.84
2023-01-30T18:23:39.120Z,59.91
2023-01-30T18:26:12.537Z,58.24
2023-01-30T18:28:45.337Z,57.52
2023-01-30T18:31:16.424Z,57.48
2023-01-30T18:33:46.978Z,57.65
2023-01-30T18:36:18.939Z,58.46
2023-01-30T18:38:49.745Z,59.30
2023-01-30T18:41:21.724Z,60.05
2023-01-30T18:43:59.311Z,60.50
2023-01-30T18:46:30.162Z,61.74
2023-01-30T18:49:01.075Z,61.68
2023-01-30T18:51:34.097Z,62.06
2023-01-30T18:54:04.838Z,61.85
2023-01-30T18:56:36.263Z,60.48
2023-01-30T18:59:07.889Z,58.92
2023-01-30T19:01:40.180Z,58.16
2023-01-30T19:04:11.969Z,57.67
2023-01-30T19:06:43.606Z,58.19
2023-01-30T19:09:15.887Z,59.23
2023-01-30T19:12:04.625Z,59.50
2023-01-30T19:14:35.125Z,61.00
2023-01-30T19:17:05.928Z,61.46
2023-01-30T19:19:38.428Z,62.11
2023-01-30T19:22:08.993Z,62.56
2023-01-30T19:24:39.415Z,62.39
2023-01-30T19:27:15.155Z,62.36
2023-01-30T19:29:45.941Z,62.61
2023-01-30T19:32:16.840Z,61.26
2023-01-30T19:34:49.897Z,60.05
2023-01-30T19:37:20.733Z,58.20
2023-01-30T19:39:51.182Z,58.43
2023-01-30T19:42:21.965Z,59.12
2023-01-30T19:44:52.362Z,59.60
2023-01-30T19:47:24.312Z,60.03
2023-01-30T19:49:56.022Z,61.17
2023-01-30T19:52:26.742Z,62.09
2023-01-30T19:54:57.611Z,62.33
2023-01-30T19:57:28.066Z,62.96
2023-01-30T19:59:58.777Z,63.07
2023-01-30T20:02:30.234Z,62.76
2023-01-30T20:05:01.499Z,63.02
2023-01-30T20:07:35.662Z,61.69
2023-01-30T20:10:07.425Z,60.07
2023-01-30T20:12:37.902Z,58.92
2023-01-30T20:15:08.670Z,59.07
2023-01-30T20:17:39.236Z,59.50
2023-01-30T20:20:11.993Z,60.78
2023-01-30T20:22:42.492Z,61.58
2023-01-30T20:25:13.151Z,62.20
2023-01-30T20:27:43.953Z,62.41
2023-01-30T20:30:15.468Z,63.57
2023-01-30T20:32:46.866Z,63.28
2023-01-30T20:35:19.129Z,63.51
2023-01-30T20:37:49.891Z,64.19
2023-01-30T20:40:20.971Z,62.49
2023-01-30T20:42:51.680Z,60.98
2023-01-30T20:45:22.170Z,59.66
2023-01-30T20:47:52.699Z,60.02
2023-01-30T20:50:23.317Z,60.38
2023-01-30T20:52:53.953Z,61.06
2023-01-30T20:55:24.304Z,62.01
2023-01-30T20:57:55.003Z,62.38
2023-01-30T21:00:25.883Z,63.19
2023-01-30T21:02:56.883Z,63.52
2023-01-30T21:05:27.302Z,63.53
2023-01-30T21:07:57.831Z,63.56
2023-01-30T21:10:28.298Z,63.40
2023-01-30T21:12:58.942Z,63.93
2023-01-30T21:15:29.793Z,64.26
2023-01-30T21:18:00.408Z,62.74
2023-01-30T21:20:30.833Z,61.00
2023-01-30T21:23:01.971Z,60.67
2023-01-30T21:25:32.467Z,60.92
2023-01-30T21:28:02.978Z,61.51
2023-01-30T21:30:33.567Z,61.97
2023-01-30T21:33:04.645Z,63.07
2023-01-30T21:35:35.122Z,63.98
2023-01-30T21:38:24.001Z,63.89
2023-01-30T21:41:12.924Z,63.78
2023-01-30T21:43:43.572Z,63.87
2023-01-30T21:46:16.858Z,64.13
2023-01-30T21:48:47.673Z,64.50
2023-01-30T21:51:18.047Z,64.42
2023-01-30T21:53:48.644Z,62.62
2023-01-30T21:56:19.464Z,61.33
2023-01-30T21:58:50.232Z,61.17
2023-01-30T22:01:20.791Z,61.30
2023-01-30T22:03:51.954Z,61.93
2023-01-30T22:06:22.883Z,62.50
2023-01-30T22:08:56.715Z,63.34
2023-01-30T22:11:28.050Z,63.45
2023-01-30T22:13:59.140Z,64.22
2023-01-30T22:16:30.510Z,64.33
2023-01-30T22:19:02.353Z,64.81
2023-01-30T22:21:35.063Z,65.07
2023-01-30T22:24:06.925Z,64.97
2023-01-30T22:26:37.800Z,64.96
2023-01-30T22:29:08.654Z,64.63
2023-01-30T22:31:41.971Z,64.81
2023-01-30T22:34:13.024Z,64.67
2023-01-30T22:36:43.393Z,65.42
2023-01-30T22:39:13.954Z,65.94
2023-01-30T22:41:44.724Z,64.36
2023-01-30T22:44:15.240Z,62.42
2023-01-30T22:46:45.647Z,61.98
2023-01-30T22:49:16.181Z,62.46
2023-01-30T22:51:46.602Z,62.65
2023-01-30T22:54:17.528Z,63.14
2023-01-30T22:56:49.478Z,64.21
2023-01-30T22:59:20.044Z,64.61
2023-01-30T23:01:52.161Z,65.46
2023-01-30T23:04:24.386Z,64.62
2023-01-30T23:06:55.041Z,65.34
2023-01-30T23:09:26.042Z,64.99
2023-01-30T23:12:15.699Z,65.40
2023-01-30T23:14:46.444Z,65.90
2023-01-30T23:17:35.444Z,65.50
2023-01-30T23:20:06.307Z,66.31
2023-01-30T23:22:36.979Z,65.51
2023-01-30T23:25:07.815Z,66.51
2023-01-30T23:27:38.967Z,65.48
2023-01-30T23:30:09.782Z,65.95
2023-01-30T23:32:40.283Z,64.19
2023-01-30T23:35:11.019Z,63.65
2023-01-30T23:37:59.842Z,63.33
2023-01-30T23:40:31.225Z,63.60
2023-01-30T23:43:01.726Z,64.46
2023-01-30T23:45:32.344Z,64.41
2023-01-30T23:48:03.091Z,64.67
2023-01-30T23:50:33.835Z,64.69
2023-01-30T23:53:04.625Z,64.63
2023-01-30T23:55:35.123Z,64.13
2023-01-30T23:58:05.627Z,63.89
